Korolev, Russia
Current Conditions -  °F | °C
As of 7:00 PM on Saturday 25 Oct 2014 (Local Time) from UUEE Reporting Station
Clear Clear  
Wind Chill: 19°   Ceiling: Unl
Heat Index: 27°   Visibility: 6mi
Dew Point: 12°   Wind: 7mph
Humidity: 55%   Direction: 190°S
Pressure: 30.59"   Gusts: NA
Location:  55.93°N, 37.77°E
Report Text: UUEE 251600Z 19003MPS CAVOK M03/M11 Q1036 75000062 25150051NOSIG
Loading
Personal Weather Stations






























Interactive Weather Map
Tropical Storm Tracking
New forecast layout! Learn more

10-Day Weather Forecast

Advertisements
Track Severe Weather on mobile